Time,TemperatureF,DewpointF,PressureIn,WindDirection,WindDirectionDegrees,WindSpeedMPH,WindSpeedGustMPH,Humidity,HourlyPrecipIn,Conditions,Clouds,dailyrainin,SoftwareType,DateUTC
2013-09-05 00:03:00,67.1,62.8,30.03,SSW,196,0.0,0.0,86,0.00,,,0.00,Wunderground v.1.15,2013-09-05 05:03:00,
2013-09-05 00:08:00,67.3,63.0,30.03,SSW,196,0.0,0.0,86,0.00,,,0.00,Wunderground v.1.15,2013-09-05 05:08:00,
2013-09-05 00:14:00,67.3,63.0,30.03,SSW,196,0.0,0.0,86,0.00,,,0.00,Wunderground v.1.15,2013-09-05 05:14:00,
2013-09-05 00:20:00,67.2,62.9,30.03,SSW,195,0.0,0.0,86,0.00,,,0.00,Wunderground v.1.15,2013-09-05 05:20:00,
2013-09-05 00:26:00,66.9,62.6,30.03,SSW,196,0.0,0.0,86,0.00,,,0.00,Wunderground v.1.15,2013-09-05 05:26:00,
2013-09-05 00:31:00,66.7,62.4,30.03,SSW,196,0.0,0.0,86,0.00,,,0.00,Wunderground v.1.15,2013-09-05 05:31:00,
2013-09-05 00:37:00,67.0,62.7,30.03,SSW,196,0.0,0.0,86,0.00,,,0.00,Wunderground v.1.15,2013-09-05 05:37:00,
2013-09-05 00:42:00,67.1,62.8,30.03,SSW,196,0.0,0.0,86,0.00,,,0.00,Wunderground v.1.15,2013-09-05 05:42:00,
2013-09-05 00:48:00,67.1,62.8,30.02,SSW,196,0.0,0.0,86,0.00,,,0.00,Wunderground v.1.15,2013-09-05 05:48:00,
2013-09-05 00:54:00,67.6,63.3,30.02,SSW,196,2.0,2.0,86,0.00,,,0.00,Wunderground v.1.15,2013-09-05 05:54:00,
2013-09-05 01:00:00,67.9,63.6,30.02,SSW,195,0.0,1.0,86,0.00,,,0.00,Wunderground v.1.15,2013-09-05 06:00:00,
2013-09-05 01:05:00,67.9,63.2,30.03,SSW,195,0.0,1.0,85,0.00,,,0.00,Wunderground v.1.15,2013-09-05 06:05:00,
2013-09-05 01:11:00,68.0,63.3,30.02,SSW,196,0.0,0.0,85,0.00,,,0.00,Wunderground v.1.15,2013-09-05 06:11:00,
2013-09-05 01:17:00,68.1,63.1,30.03,SSW,196,0.0,0.0,84,0.00,,,0.00,Wunderground v.1.15,2013-09-05 06:17:00,
2013-09-05 01:22:00,68.0,62.6,30.03,SSW,196,0.0,0.0,83,0.00,,,0.00,Wunderground v.1.15,2013-09-05 06:22:00,
2013-09-05 01:28:00,68.1,62.4,30.03,SSW,196,0.0,0.0,82,0.00,,,0.00,Wunderground v.1.15,2013-09-05 06:28:00,
2013-09-05 01:34:00,68.2,62.5,30.03,SSW,195,0.0,0.0,82,0.00,,,0.00,Wunderground v.1.15,2013-09-05 06:34:00,
2013-09-05 01:39:00,68.3,62.6,30.03,SSW,195,0.0,0.0,82,0.00,,,0.00,Wunderground v.1.15,2013-09-05 06:39:00,
2013-09-05 01:45:00,68.5,62.4,30.03,SSW,196,0.0,0.0,81,0.00,,,0.00,Wunderground v.1.15,2013-09-05 06:45:00,
2013-09-05 01:50:00,68.7,62.6,30.03,SSW,196,0.0,0.0,81,0.00,,,0.00,Wunderground v.1.15,2013-09-05 06:50:00,
2013-09-05 01:56:00,68.8,62.7,30.03,SSW,196,0.0,0.0,81,0.00,,,0.00,Wunderground v.1.15,2013-09-05 06:56:00,
2013-09-05 02:01:00,68.8,62.7,30.03,SSW,196,0.0,0.0,81,0.00,,,0.00,Wunderground v.1.15,2013-09-05 07:01:00,
2013-09-05 02:06:00,68.5,62.4,30.03,SSW,196,0.0,0.0,81,0.00,,,0.00,Wunderground v.1.15,2013-09-05 07:06:00,
2013-09-05 02:11:00,68.0,62.3,30.03,SSW,195,0.0,0.0,82,0.00,,,0.00,Wunderground v.1.15,2013-09-05 07:11:00,
2013-09-05 02:16:00,67.7,62.0,30.03,SSW,196,0.0,0.0,82,0.00,,,0.00,Wunderground v.1.15,2013-09-05 07:16:00,
2013-09-05 02:21:00,67.4,62.1,30.03,SSW,195,0.0,0.0,83,0.00,,,0.00,Wunderground v.1.15,2013-09-05 07:21:00,
2013-09-05 02:26:00,67.0,61.7,30.03,SSW,196,0.0,0.0,83,0.00,,,0.00,Wunderground v.1.15,2013-09-05 07:26:00,
2013-09-05 02:31:00,66.7,61.7,30.03,SSW,196,0.0,0.0,84,0.00,,,0.00,Wunderground v.1.15,2013-09-05 07:31:00,
2013-09-05 02:36:00,66.8,62.1,30.03,SSW,196,0.0,0.0,85,0.00,,,0.00,Wunderground v.1.15,2013-09-05 07:36:00,
2013-09-05 02:41:00,67.2,62.5,30.03,SSW,195,0.0,0.0,85,0.00,,,0.00,Wunderground v.1.15,2013-09-05 07:41:00,
2013-09-05 02:46:00,67.3,62.3,30.03,SSW,195,0.0,0.0,84,0.00,,,0.00,Wunderground v.1.15,2013-09-05 07:46:00,
2013-09-05 02:51:00,67.4,62.4,30.03,SSW,196,0.0,0.0,84,0.00,,,0.00,Wunderground v.1.15,2013-09-05 07:51:00,
2013-09-05 02:56:00,67.5,62.5,30.03,SSW,196,0.0,0.0,84,0.00,,,0.00,Wunderground v.1.15,2013-09-05 07:56:00,
2013-09-05 03:01:00,67.6,62.6,30.03,SSW,196,0.0,0.0,84,0.00,,,0.00,Wunderground v.1.15,2013-09-05 08:01:00,
2013-09-05 03:06:00,67.4,62.4,30.03,SSW,195,0.0,0.0,84,0.00,,,0.00,Wunderground v.1.15,2013-09-05 08:06:00,
2013-09-05 03:11:00,67.2,62.2,30.03,SSW,196,0.0,0.0,84,0.00,,,0.00,Wunderground v.1.15,2013-09-05 08:11:00,
2013-09-05 03:16:00,66.9,62.2,30.03,SSW,195,0.0,0.0,85,0.00,,,0.00,Wunderground v.1.15,2013-09-05 08:16:00,
2013-09-05 03:21:00,66.7,62.0,30.03,SSW,195,0.0,0.0,85,0.00,,,0.00,Wunderground v.1.15,2013-09-05 08:21:00,
2013-09-05 03:26:00,66.6,61.9,30.03,SSW,196,0.0,0.0,85,0.00,,,0.00,Wunderground v.1.15,2013-09-05 08:26:00,
2013-09-05 03:31:00,66.5,62.2,30.03,SSW,196,0.0,0.0,86,0.00,,,0.00,Wunderground v.1.15,2013-09-05 08:31:00,
2013-09-05 03:36:00,66.3,62.0,30.04,SSW,195,0.0,0.0,86,0.00,,,0.00,Wunderground v.1.15,2013-09-05 08:36:00,
2013-09-05 03:41:00,66.1,61.8,30.04,SSW,196,0.0,0.0,86,0.00,,,0.00,Wunderground v.1.15,2013-09-05 08:41:00,
2013-09-05 03:46:00,66.0,62.0,30.04,SSW,195,0.0,0.0,87,0.00,,,0.00,Wunderground v.1.15,2013-09-05 08:46:00,
2013-09-05 03:51:00,66.2,62.2,30.04,SSW,195,0.0,0.0,87,0.00,,,0.00,Wunderground v.1.15,2013-09-05 08:51:00,
2013-09-05 03:56:00,66.4,62.4,30.04,SSW,195,0.0,0.0,87,0.00,,,0.00,Wunderground v.1.15,2013-09-05 08:56:00,
2013-09-05 04:01:00,66.3,62.3,30.05,SSW,196,0.0,0.0,87,0.00,,,0.00,Wunderground v.1.15,2013-09-05 09:01:00,
2013-09-05 04:06:00,66.1,62.1,30.05,SSW,196,0.0,0.0,87,0.00,,,0.00,Wunderground v.1.15,2013-09-05 09:06:00,
2013-09-05 04:11:00,66.0,62.0,30.05,SSW,196,0.0,0.0,87,0.00,,,0.00,Wunderground v.1.15,2013-09-05 09:11:00,
2013-09-05 04:16:00,65.9,61.9,30.04,SSW,195,0.0,0.0,87,0.00,,,0.00,Wunderground v.1.15,2013-09-05 09:16:00,
2013-09-05 04:21:00,65.7,62.0,30.05,SSW,195,0.0,0.0,88,0.00,,,0.00,Wunderground v.1.15,2013-09-05 09:21:00,
2013-09-05 04:26:00,65.4,61.8,30.04,SSW,196,0.0,0.0,88,0.00,,,0.00,Wunderground v.1.15,2013-09-05 09:26:00,
2013-09-05 04:31:00,65.2,61.6,30.04,SSW,196,0.0,0.0,88,0.00,,,0.00,Wunderground v.1.15,2013-09-05 09:31:00,
2013-09-05 04:36:00,65.2,61.6,30.05,SSW,195,0.0,0.0,88,0.00,,,0.00,Wunderground v.1.15,2013-09-05 09:36:00,
2013-09-05 04:41:00,65.2,61.9,30.05,SSW,196,0.0,0.0,89,0.00,,,0.00,Wunderground v.1.15,2013-09-05 09:41:00,
2013-09-05 04:46:00,65.1,61.5,30.05,SSW,196,0.0,0.0,88,0.00,,,0.00,Wunderground v.1.15,2013-09-05 09:46:00,
2013-09-05 04:51:00,65.0,61.4,30.04,SSW,196,0.0,0.0,88,0.00,,,0.00,Wunderground v.1.15,2013-09-05 09:51:00,
2013-09-05 04:56:00,64.8,61.2,30.05,SSW,196,0.0,0.0,88,0.00,,,0.00,Wunderground v.1.15,2013-09-05 09:56:00,
2013-09-05 05:01:00,64.6,61.3,30.04,SSW,196,0.0,0.0,89,0.00,,,0.00,Wunderground v.1.15,2013-09-05 10:01:00,
2013-09-05 05:06:00,64.8,61.5,30.05,SSW,195,0.0,0.0,89,0.00,,,0.00,Wunderground v.1.15,2013-09-05 10:06:00,
2013-09-05 05:11:00,64.8,61.5,30.05,SSW,196,0.0,0.0,89,0.00,,,0.00,Wunderground v.1.15,2013-09-05 10:11:00,
2013-09-05 05:16:00,64.7,61.4,30.05,SSW,196,0.0,0.0,89,0.00,,,0.00,Wunderground v.1.15,2013-09-05 10:16:00,
2013-09-05 05:21:00,64.5,61.2,30.05,SSW,195,0.0,0.0,89,0.00,,,0.00,Wunderground v.1.15,2013-09-05 10:21:00,
2013-09-05 05:26:00,64.6,61.3,30.05,SSW,196,0.0,0.0,89,0.00,,,0.00,Wunderground v.1.15,2013-09-05 10:26:00,
2013-09-05 05:31:00,64.8,61.5,30.05,SSW,195,0.0,0.0,89,0.00,,,0.00,Wunderground v.1.15,2013-09-05 10:31:00,
2013-09-05 05:36:00,65.1,61.8,30.05,SSW,196,0.0,0.0,89,0.00,,,0.00,Wunderground v.1.15,2013-09-05 10:36:00,
2013-09-05 05:41:00,65.3,62.0,30.05,SSW,196,0.0,0.0,89,0.00,,,0.00,Wunderground v.1.15,2013-09-05 10:41:00,
2013-09-05 05:46:00,65.3,61.7,30.05,SSW,195,0.0,0.0,88,0.00,,,0.00,Wunderground v.1.15,2013-09-05 10:46:00,
2013-09-05 05:51:00,65.1,61.5,30.05,SSW,195,0.0,0.0,88,0.00,,,0.00,Wunderground v.1.15,2013-09-05 10:51:00,
2013-09-05 05:56:00,64.6,61.0,30.05,SSW,196,0.0,0.0,88,0.00,,,0.00,Wunderground v.1.15,2013-09-05 10:56:00,
2013-09-05 06:01:00,64.1,60.5,30.05,SSW,196,0.0,0.0,88,0.00,,,0.00,Wunderground v.1.15,2013-09-05 11:01:00,
2013-09-05 06:06:00,63.3,59.7,30.05,SSW,195,0.0,0.0,88,0.00,,,0.00,Wunderground v.1.15,2013-09-05 11:06:00,
2013-09-05 06:11:00,62.8,59.2,30.06,SSW,196,0.0,0.0,88,0.00,,,0.00,Wunderground v.1.15,2013-09-05 11:11:00,
2013-09-05 06:16:00,63.0,59.7,30.06,SSW,196,0.0,0.0,89,0.00,,,0.00,Wunderground v.1.15,2013-09-05 11:16:00,
2013-09-05 06:21:00,62.9,59.6,30.06,SSW,195,0.0,0.0,89,0.00,,,0.00,Wunderground v.1.15,2013-09-05 11:21:00,
2013-09-05 06:26:00,62.6,59.3,30.05,SSW,196,0.0,0.0,89,0.00,,,0.00,Wunderground v.1.15,2013-09-05 11:26:00,
2013-09-05 06:31:00,62.2,58.9,30.05,SSW,196,0.0,0.0,89,0.00,,,0.00,Wunderground v.1.15,2013-09-05 11:31:00,
2013-09-05 06:36:00,61.9,58.6,30.06,SSW,195,0.0,0.0,89,0.00,,,0.00,Wunderground v.1.15,2013-09-05 11:36:00,
2013-09-05 06:41:00,61.8,58.5,30.06,SSW,196,0.0,0.0,89,0.00,,,0.00,Wunderground v.1.15,2013-09-05 11:41:00,
2013-09-05 06:46:00,61.6,58.3,30.06,SSW,196,0.0,0.0,89,0.00,,,0.00,Wunderground v.1.15,2013-09-05 11:46:00,
2013-09-05 06:51:00,61.4,58.1,30.06,SSW,195,0.0,0.0,89,0.00,,,0.00,Wunderground v.1.15,2013-09-05 11:51:00,
2013-09-05 06:56:00,61.4,58.4,30.07,SSW,196,0.0,0.0,90,0.00,,,0.00,Wunderground v.1.15,2013-09-05 11:56:00,
2013-09-05 07:01:00,61.5,58.5,30.07,SSW,196,0.0,0.0,90,0.00,,,0.00,Wunderground v.1.15,2013-09-05 12:01:00,
2013-09-05 07:06:00,61.3,58.3,30.06,SSW,196,0.0,0.0,90,0.00,,,0.00,Wunderground v.1.15,2013-09-05 12:06:00,
2013-09-05 07:11:00,61.3,58.3,30.07,SSW,195,0.0,0.0,90,0.00,,,0.00,Wunderground v.1.15,2013-09-05 12:11:00,
2013-09-05 07:16:00,61.5,58.5,30.07,SSW,196,0.0,0.0,90,0.00,,,0.00,Wunderground v.1.15,2013-09-05 12:16:00,
2013-09-05 07:21:00,61.9,58.9,30.07,SSW,196,0.0,0.0,90,0.00,,,0.00,Wunderground v.1.15,2013-09-05 12:21:00,
2013-09-05 07:26:00,62.5,59.8,30.07,SSW,195,0.0,0.0,91,0.00,,,0.00,Wunderground v.1.15,2013-09-05 12:26:00,
2013-09-05 07:31:00,62.9,60.2,30.07,SSW,195,0.0,0.0,91,0.00,,,0.00,Wunderground v.1.15,2013-09-05 12:31:00,
2013-09-05 07:36:00,63.3,60.6,30.07,SSW,196,0.0,0.0,91,0.00,,,0.00,Wunderground v.1.15,2013-09-05 12:36:00,
2013-09-05 07:41:00,63.5,60.8,30.07,SSW,196,0.0,0.0,91,0.00,,,0.00,Wunderground v.1.15,2013-09-05 12:41:00,
2013-09-05 07:46:00,64.1,61.4,30.07,SSW,196,0.0,0.0,91,0.00,,,0.00,Wunderground v.1.15,2013-09-05 12:46:00,
2013-09-05 07:51:00,64.8,62.1,30.07,SSW,195,0.0,0.0,91,0.00,,,0.00,Wunderground v.1.15,2013-09-05 12:51:00,
2013-09-05 07:56:00,65.5,62.8,30.06,SSW,196,0.0,0.0,91,0.00,,,0.00,Wunderground v.1.15,2013-09-05 12:56:00,
2013-09-05 08:01:00,66.5,63.8,30.06,SSW,195,0.0,0.0,91,0.00,,,0.00,Wunderground v.1.15,2013-09-05 13:01:00,
2013-09-05 08:06:00,67.6,64.6,30.06,SSW,195,0.0,0.0,90,0.00,,,0.00,Wunderground v.1.15,2013-09-05 13:06:00,
2013-09-05 08:11:00,68.6,64.9,30.06,SSW,196,0.0,0.0,88,0.00,,,0.00,Wunderground v.1.15,2013-09-05 13:11:00,
2013-09-05 08:17:00,69.3,64.6,30.06,SSW,196,0.0,0.0,85,0.00,,,0.00,Wunderground v.1.15,2013-09-05 13:17:00,
2013-09-05 08:22:00,69.8,64.4,30.06,SSW,196,0.0,0.0,83,0.00,,,0.00,Wunderground v.1.15,2013-09-05 13:22:00,
2013-09-05 08:27:00,70.2,63.7,30.06,SSW,196,1.0,5.0,80,0.00,,,0.00,Wunderground v.1.15,2013-09-05 13:27:00,
2013-09-05 08:32:00,70.5,63.7,30.06,SSW,196,3.0,4.0,79,0.00,,,0.00,Wunderground v.1.15,2013-09-05 13:32:00,
2013-09-05 08:37:00,70.3,63.1,30.06,SSW,196,2.0,4.0,78,0.00,,,0.00,Wunderground v.1.15,2013-09-05 13:37:00,
2013-09-05 08:42:00,70.2,63.4,30.06,SSW,196,1.0,4.0,79,0.00,,,0.00,Wunderground v.1.15,2013-09-05 13:42:00,
2013-09-05 08:47:00,70.7,63.9,30.06,SSW,196,0.0,4.0,79,0.00,,,0.00,Wunderground v.1.15,2013-09-05 13:47:00,
2013-09-05 08:52:00,71.0,63.8,30.06,SSW,196,5.0,6.0,78,0.00,,,0.00,Wunderground v.1.15,2013-09-05 13:52:00,
2013-09-05 08:57:00,71.4,64.2,30.06,SSW,195,4.0,6.0,78,0.00,,,0.00,Wunderground v.1.15,2013-09-05 13:57:00,
2013-09-05 09:02:00,71.7,64.1,30.06,SSW,196,3.0,7.0,77,0.00,,,0.00,Wunderground v.1.15,2013-09-05 14:02:00,
2013-09-05 09:07:00,72.0,64.4,30.06,SSW,195,3.0,7.0,77,0.00,,,0.00,Wunderground v.1.15,2013-09-05 14:07:00,
2013-09-05 09:12:00,72.3,64.3,30.06,SSW,195,2.0,6.0,76,0.00,,,0.00,Wunderground v.1.15,2013-09-05 14:12:00,
2013-09-05 09:17:00,72.8,65.2,30.06,SSW,196,3.0,6.0,77,0.00,,,0.00,Wunderground v.1.15,2013-09-05 14:17:00,
2013-09-05 09:22:00,72.8,64.4,30.06,SSW,195,3.0,5.0,75,0.00,,,0.00,Wunderground v.1.15,2013-09-05 14:22:00,
2013-09-05 09:27:00,72.9,64.5,30.06,SSW,195,5.0,6.0,75,0.00,,,0.00,Wunderground v.1.15,2013-09-05 14:27:00,
2013-09-05 09:32:00,73.1,64.7,30.07,SSW,196,3.0,5.0,75,0.00,,,0.00,Wunderground v.1.15,2013-09-05 14:32:00,
2013-09-05 09:37:00,73.6,65.6,30.07,SSW,196,0.0,5.0,76,0.00,,,0.00,Wunderground v.1.15,2013-09-05 14:37:00,
2013-09-05 09:42:00,74.1,65.3,30.07,SSW,196,4.0,5.0,74,0.00,,,0.00,Wunderground v.1.15,2013-09-05 14:42:00,
2013-09-05 09:47:00,74.4,65.6,30.07,SSW,196,7.0,7.0,74,0.00,,,0.00,Wunderground v.1.15,2013-09-05 14:47:00,
2013-09-05 09:52:00,74.8,65.6,30.07,SSW,196,3.0,5.0,73,0.00,,,0.00,Wunderground v.1.15,2013-09-05 14:52:00,
2013-09-05 09:57:00,75.2,65.9,30.07,SSW,195,2.0,6.0,73,0.00,,,0.00,Wunderground v.1.15,2013-09-05 14:57:00,
2013-09-05 10:02:00,75.6,65.9,30.06,SSW,195,4.0,7.0,72,0.00,,,0.00,Wunderground v.1.15,2013-09-05 15:02:00,
2013-09-05 10:08:00,75.8,65.7,30.06,SSW,196,4.0,7.0,71,0.00,,,0.00,Wunderground v.1.15,2013-09-05 15:08:00,
2013-09-05 10:13:00,76.0,65.9,30.06,SSW,195,1.0,7.0,71,0.00,,,0.00,Wunderground v.1.15,2013-09-05 15:13:00,
2013-09-05 10:18:00,76.6,66.5,30.06,SSW,196,5.0,7.0,71,0.00,,,0.00,Wunderground v.1.15,2013-09-05 15:18:00,
2013-09-05 10:23:00,76.8,66.3,30.06,SSW,196,4.0,5.0,70,0.00,,,0.00,Wunderground v.1.15,2013-09-05 15:23:00,
2013-09-05 10:28:00,77.0,66.5,30.06,SSW,195,3.0,7.0,70,0.00,,,0.00,Wunderground v.1.15,2013-09-05 15:28:00,
2013-09-05 10:33:00,77.3,66.3,30.06,SSW,196,4.0,6.0,69,0.00,,,0.00,Wunderground v.1.15,2013-09-05 15:33:00,
2013-09-05 10:38:00,77.6,66.6,30.06,SSW,195,2.0,7.0,69,0.00,,,0.00,Wunderground v.1.15,2013-09-05 15:38:00,
2013-09-05 10:43:00,77.9,66.9,30.06,SSW,196,2.0,7.0,69,0.00,,,0.00,Wunderground v.1.15,2013-09-05 15:43:00,
2013-09-05 10:48:00,78.2,67.2,30.06,SSW,196,4.0,7.0,69,0.00,,,0.00,Wunderground v.1.15,2013-09-05 15:48:00,
2013-09-05 10:53:00,78.1,66.7,30.06,SSW,196,4.0,4.0,68,0.00,,,0.00,Wunderground v.1.15,2013-09-05 15:53:00,
2013-09-05 10:58:00,78.3,66.9,30.06,SSW,195,5.0,7.0,68,0.00,,,0.00,Wunderground v.1.15,2013-09-05 15:58:00,
2013-09-05 11:03:00,78.7,67.7,30.06,SSW,196,4.0,4.0,69,0.00,,,0.00,Wunderground v.1.15,2013-09-05 16:03:00,
2013-09-05 11:08:00,78.7,66.8,30.07,SSW,195,1.0,6.0,67,0.00,,,0.00,Wunderground v.1.15,2013-09-05 16:08:00,
2013-09-05 11:13:00,78.7,67.2,30.07,SSW,195,0.0,3.0,68,0.00,,,0.00,Wunderground v.1.15,2013-09-05 16:13:00,
2013-09-05 11:18:00,79.2,67.3,30.07,SSW,196,2.0,4.0,67,0.00,,,0.00,Wunderground v.1.15,2013-09-05 16:18:00,
2013-09-05 11:23:00,79.5,67.1,30.07,SSW,196,4.0,6.0,66,0.00,,,0.00,Wunderground v.1.15,2013-09-05 16:23:00,
2013-09-05 11:28:00,79.8,67.4,30.07,SSW,195,1.0,6.0,66,0.00,,,0.00,Wunderground v.1.15,2013-09-05 16:28:00,
2013-09-05 11:33:00,80.3,67.5,30.08,SSW,196,6.0,7.0,65,0.00,,,0.00,Wunderground v.1.15,2013-09-05 16:33:00,
2013-09-05 11:38:00,80.5,67.6,30.07,SSW,196,1.0,7.0,65,0.00,,,0.00,Wunderground v.1.15,2013-09-05 16:38:00,
2013-09-05 11:43:00,80.7,67.8,30.07,SSW,195,4.0,7.0,65,0.00,,,0.00,Wunderground v.1.15,2013-09-05 16:43:00,
2013-09-05 11:48:00,80.8,67.5,30.07,SSW,196,5.0,7.0,64,0.00,,,0.00,Wunderground v.1.15,2013-09-05 16:48:00,
2013-09-05 11:53:00,81.1,68.7,30.07,SSW,195,7.0,7.0,66,0.00,,,0.00,Wunderground v.1.15,2013-09-05 16:53:00,
2013-09-05 11:58:00,81.2,68.3,30.07,SSW,196,0.0,7.0,65,0.00,,,0.00,Wunderground v.1.15,2013-09-05 16:58:00,
2013-09-05 12:03:00,81.6,69.1,30.07,SSW,196,3.0,7.0,66,0.00,,,0.00,Wunderground v.1.15,2013-09-05 17:03:00,
2013-09-05 12:08:00,81.8,68.4,30.07,SSW,196,6.0,8.0,64,0.00,,,0.00,Wunderground v.1.15,2013-09-05 17:08:00,
2013-09-05 12:13:00,81.8,68.4,30.07,SSW,196,6.0,7.0,64,0.00,,,0.00,Wunderground v.1.15,2013-09-05 17:13:00,
2013-09-05 12:18:00,81.9,67.6,30.07,SSW,196,1.0,7.0,62,0.00,,,0.00,Wunderground v.1.15,2013-09-05 17:18:00,
2013-09-05 12:23:00,81.8,67.5,30.07,SSW,196,7.0,8.0,62,0.00,,,0.00,Wunderground v.1.15,2013-09-05 17:23:00,
2013-09-05 12:28:00,82.0,68.2,30.06,SSW,195,11.0,12.0,63,0.00,,,0.00,Wunderground v.1.15,2013-09-05 17:28:00,
2013-09-05 12:33:00,82.0,67.7,30.06,SSW,195,2.0,6.0,62,0.00,,,0.00,Wunderground v.1.15,2013-09-05 17:33:00,
2013-09-05 12:38:00,82.3,68.0,30.06,SSW,196,7.0,11.0,62,0.00,,,0.00,Wunderground v.1.15,2013-09-05 17:38:00,
2013-09-05 12:43:00,82.2,67.9,30.06,SSW,195,2.0,7.0,62,0.00,,,0.00,Wunderground v.1.15,2013-09-05 17:43:00,
2013-09-05 12:48:00,82.7,67.9,30.06,SSW,195,6.0,9.0,61,0.00,,,0.00,Wunderground v.1.15,2013-09-05 17:48:00,
2013-09-05 12:53:00,82.4,67.1,30.06,SSW,195,2.0,8.0,60,0.00,,,0.00,Wunderground v.1.15,2013-09-05 17:53:00,
2013-09-05 12:58:00,82.5,67.7,30.06,SSW,196,3.0,8.0,61,0.00,,,0.00,Wunderground v.1.15,2013-09-05 17:58:00,
2013-09-05 13:03:00,82.6,68.3,30.06,SSW,196,0.0,6.0,62,0.00,,,0.00,Wunderground v.1.15,2013-09-05 18:03:00,
2013-09-05 13:08:00,82.9,68.1,30.06,SSW,196,1.0,7.0,61,0.00,,,0.00,Wunderground v.1.15,2013-09-05 18:08:00,
2013-09-05 13:13:00,82.8,67.5,30.06,SSW,196,3.0,9.0,60,0.00,,,0.00,Wunderground v.1.15,2013-09-05 18:13:00,
2013-09-05 13:18:00,82.7,68.4,30.05,SSW,196,2.0,9.0,62,0.00,,,0.00,Wunderground v.1.15,2013-09-05 18:18:00,
2013-09-05 13:23:00,83.5,69.1,30.05,SSW,196,3.0,8.0,62,0.00,,,0.00,Wunderground v.1.15,2013-09-05 18:23:00,
2013-09-05 13:28:00,83.5,68.2,30.05,SSW,196,5.0,8.0,60,0.00,,,0.00,Wunderground v.1.15,2013-09-05 18:28:00,
2013-09-05 13:33:00,83.3,68.0,30.05,SSW,196,7.0,11.0,60,0.00,,,0.00,Wunderground v.1.15,2013-09-05 18:33:00,
2013-09-05 13:38:00,83.6,67.3,30.05,SSW,196,7.0,12.0,58,0.00,,,0.00,Wunderground v.1.15,2013-09-05 18:38:00,
2013-09-05 13:43:00,83.3,68.0,30.05,SSW,196,5.0,9.0,60,0.00,,,0.00,Wunderground v.1.15,2013-09-05 18:43:00,
2013-09-05 13:48:00,83.0,67.2,30.05,SSW,195,6.0,11.0,59,0.00,,,0.00,Wunderground v.1.15,2013-09-05 18:48:00,
2013-09-05 13:53:00,82.6,68.3,30.04,SSW,196,2.0,11.0,62,0.00,,,0.00,Wunderground v.1.15,2013-09-05 18:53:00,
2013-09-05 13:58:00,83.2,67.9,30.04,SSW,195,7.0,11.0,60,0.00,,,0.00,Wunderground v.1.15,2013-09-05 18:58:00,
2013-09-05 14:03:00,82.7,67.9,30.04,SSW,195,7.0,8.0,61,0.00,,,0.00,Wunderground v.1.15,2013-09-05 19:03:00,
2013-09-05 14:08:00,82.9,68.5,30.04,SSW,196,7.0,10.0,62,0.00,,,0.00,Wunderground v.1.15,2013-09-05 19:08:00,
2013-09-05 14:13:00,83.1,68.3,30.04,SSW,196,9.0,11.0,61,0.00,,,0.00,Wunderground v.1.15,2013-09-05 19:13:00,
2013-09-05 14:18:00,83.2,68.3,30.04,SSW,196,9.0,11.0,61,0.00,,,0.00,Wunderground v.1.15,2013-09-05 19:18:00,
2013-09-05 14:23:00,83.2,68.3,30.04,SSW,195,12.0,12.0,61,0.00,,,0.00,Wunderground v.1.15,2013-09-05 19:23:00,
2013-09-05 14:28:00,83.3,68.4,30.03,South,187,11.0,14.0,61,0.00,,,0.00,Wunderground v.1.15,2013-09-05 19:28:00,
2013-09-05 14:33:00,83.6,69.7,30.04,South,184,4.0,11.0,63,0.00,,,0.00,Wunderground v.1.15,2013-09-05 19:33:00,
2013-09-05 14:38:00,83.1,69.2,30.03,South,180,9.0,13.0,63,0.00,,,0.00,Wunderground v.1.15,2013-09-05 19:38:00,
2013-09-05 14:43:00,83.1,69.2,30.03,SSE,158,4.0,11.0,63,0.00,,,0.00,Wunderground v.1.15,2013-09-05 19:43:00,
2013-09-05 14:48:00,83.8,69.9,30.03,SSE,167,13.0,13.0,63,0.00,,,0.00,Wunderground v.1.15,2013-09-05 19:48:00,
2013-09-05 14:54:00,83.1,68.7,30.03,South,175,10.0,10.0,62,0.00,,,0.00,Wunderground v.1.15,2013-09-05 19:54:00,
2013-09-05 14:59:00,83.1,68.3,30.03,South,186,7.0,11.0,61,0.00,,,0.00,Wunderground v.1.15,2013-09-05 19:59:00,
2013-09-05 15:04:00,83.5,68.6,30.03,South,179,10.0,13.0,61,0.00,,,0.00,Wunderground v.1.15,2013-09-05 20:04:00,
2013-09-05 15:09:00,83.2,68.3,30.03,South,178,5.0,13.0,61,0.00,,,0.00,Wunderground v.1.15,2013-09-05 20:09:00,
2013-09-05 15:14:00,82.3,68.9,30.02,South,178,6.0,9.0,64,0.00,,,0.00,Wunderground v.1.15,2013-09-05 20:14:00,
2013-09-05 15:19:00,83.0,69.6,30.03,South,178,10.0,10.0,64,0.00,,,0.00,Wunderground v.1.15,2013-09-05 20:19:00,
2013-09-05 15:24:00,83.4,69.5,30.03,SSW,197,4.0,9.0,63,0.00,,,0.00,Wunderground v.1.15,2013-09-05 20:24:00,
2013-09-05 15:29:00,83.7,69.8,30.02,SSW,196,6.0,15.0,63,0.00,,,0.00,Wunderground v.1.15,2013-09-05 20:29:00,
2013-09-05 15:34:00,83.5,69.6,30.02,South,173,7.0,12.0,63,0.00,,,0.00,Wunderground v.1.15,2013-09-05 20:34:00,
2013-09-05 15:39:00,83.5,69.6,30.02,South,183,12.0,12.0,63,0.00,,,0.00,Wunderground v.1.15,2013-09-05 20:39:00,
2013-09-05 15:44:00,83.5,70.0,30.02,SSW,196,6.0,13.0,64,0.00,,,0.00,Wunderground v.1.15,2013-09-05 20:44:00,
2013-09-05 15:49:00,83.4,69.0,30.02,SSW,200,5.0,13.0,62,0.00,,,0.00,Wunderground v.1.15,2013-09-05 20:49:00,
2013-09-05 15:54:00,83.1,68.7,30.02,South,187,4.0,10.0,62,0.00,,,0.00,Wunderground v.1.15,2013-09-05 20:54:00,
2013-09-05 15:59:00,82.6,67.8,30.02,SSE,159,4.0,15.0,61,0.00,,,0.00,Wunderground v.1.15,2013-09-05 20:59:00,
2013-09-05 16:04:00,82.5,68.6,30.02,South,186,9.0,13.0,63,0.00,,,0.00,Wunderground v.1.15,2013-09-05 21:04:00,
2013-09-05 16:09:00,82.4,66.6,30.03,South,184,5.0,13.0,59,0.00,,,0.00,Wunderground v.1.15,2013-09-05 21:09:00,
2013-09-05 16:14:00,82.5,66.7,30.03,South,188,6.0,14.0,59,0.00,,,0.00,Wunderground v.1.15,2013-09-05 21:14:00,
2013-09-05 16:19:00,82.6,67.8,30.03,South,184,8.0,14.0,61,0.00,,,0.00,Wunderground v.1.15,2013-09-05 21:19:00,
2013-09-05 16:24:00,82.2,66.9,30.02,South,178,7.0,14.0,60,0.00,,,0.00,Wunderground v.1.15,2013-09-05 21:24:00,
2013-09-05 16:29:00,81.8,67.0,30.02,SSE,161,5.0,14.0,61,0.00,,,0.00,Wunderground v.1.15,2013-09-05 21:29:00,
2013-09-05 16:34:00,82.2,66.4,30.02,SSW,213,14.0,14.0,59,0.00,,,0.00,Wunderground v.1.15,2013-09-05 21:34:00,
2013-09-05 16:39:00,82.5,66.2,30.02,South,186,9.0,14.0,58,0.00,,,0.00,Wunderground v.1.15,2013-09-05 21:39:00,
2013-09-05 16:44:00,82.1,66.8,30.02,South,176,10.0,15.0,60,0.00,,,0.00,Wunderground v.1.15,2013-09-05 21:44:00,
2013-09-05 16:49:00,81.5,65.8,30.03,South,173,6.0,15.0,59,0.00,,,0.00,Wunderground v.1.15,2013-09-05 21:49:00,
2013-09-05 16:54:00,81.3,66.1,30.02,South,171,7.0,8.0,60,0.00,,,0.00,Wunderground v.1.15,2013-09-05 21:54:00,
2013-09-05 16:59:00,81.9,66.2,30.02,SSW,194,7.0,11.0,59,0.00,,,0.00,Wunderground v.1.15,2013-09-05 21:59:00,
2013-09-05 17:04:00,82.3,65.5,30.02,SSW,194,5.0,13.0,57,0.00,,,0.00,Wunderground v.1.15,2013-09-05 22:04:00,
2013-09-05 17:09:00,81.9,65.2,30.02,SSW,197,7.0,16.0,57,0.00,,,0.00,Wunderground v.1.15,2013-09-05 22:09:00,
2013-09-05 17:14:00,80.6,64.9,30.02,SSW,204,8.0,14.0,59,0.00,,,0.00,Wunderground v.1.15,2013-09-05 22:14:00,
2013-09-05 17:19:00,80.0,64.9,30.02,South,187,10.0,14.0,60,0.00,,,0.00,Wunderground v.1.15,2013-09-05 22:19:00,
2013-09-05 17:24:00,80.5,65.8,30.02,South,182,5.0,13.0,61,0.00,,,0.00,Wunderground v.1.15,2013-09-05 22:24:00,
2013-09-05 17:29:00,80.9,65.2,30.02,South,189,9.0,13.0,59,0.00,,,0.00,Wunderground v.1.15,2013-09-05 22:29:00,
2013-09-05 17:34:00,80.7,65.5,30.02,SSW,196,6.0,13.0,60,0.00,,,0.00,Wunderground v.1.15,2013-09-05 22:34:00,
2013-09-05 17:39:00,80.7,65.5,30.02,South,188,9.0,14.0,60,0.00,,,0.00,Wunderground v.1.15,2013-09-05 22:39:00,
2013-09-05 17:44:00,80.2,65.1,30.02,SSW,204,9.0,13.0,60,0.00,,,0.00,Wunderground v.1.15,2013-09-05 22:44:00,
2013-09-05 17:49:00,79.8,65.2,30.02,SSW,199,7.0,13.0,61,0.00,,,0.00,Wunderground v.1.15,2013-09-05 22:49:00,
2013-09-05 17:54:00,79.1,64.5,30.01,SSW,197,7.0,14.0,61,0.00,,,0.00,Wunderground v.1.15,2013-09-05 22:54:00,
2013-09-05 17:59:00,78.7,64.6,30.01,South,190,5.0,15.0,62,0.00,,,0.00,Wunderground v.1.15,2013-09-05 22:59:00,
2013-09-05 18:04:00,78.7,65.5,30.01,South,190,4.0,9.0,64,0.00,,,0.00,Wunderground v.1.15,2013-09-05 23:04:00,
2013-09-05 18:09:00,78.4,66.1,30.02,South,190,5.0,9.0,66,0.00,,,0.00,Wunderground v.1.15,2013-09-05 23:09:00,
2013-09-05 18:14:00,78.2,66.3,30.02,SSW,192,6.0,9.0,67,0.00,,,0.00,Wunderground v.1.15,2013-09-05 23:14:00,
2013-09-05 18:19:00,77.8,66.4,30.02,SSW,198,3.0,10.0,68,0.00,,,0.00,Wunderground v.1.15,2013-09-05 23:19:00,
2013-09-05 18:25:00,77.3,65.9,30.02,SSW,200,3.0,11.0,68,0.00,,,0.00,Wunderground v.1.15,2013-09-05 23:25:00,
2013-09-05 18:30:00,76.8,65.9,30.01,SSW,200,7.0,11.0,69,0.00,,,0.00,Wunderground v.1.15,2013-09-05 23:30:00,
2013-09-05 18:35:00,76.3,66.2,30.01,SSW,198,5.0,9.0,71,0.00,,,0.00,Wunderground v.1.15,2013-09-05 23:35:00,
2013-09-05 18:41:00,75.8,66.1,30.01,SSW,198,5.0,5.0,72,0.00,,,0.00,Wunderground v.1.15,2013-09-05 23:41:00,
2013-09-05 18:46:00,75.3,66.0,30.01,SSW,198,4.0,8.0,73,0.00,,,0.00,Wunderground v.1.15,2013-09-05 23:46:00,
2013-09-05 18:51:00,74.9,65.3,30.01,SSW,198,5.0,6.0,72,0.00,,,0.00,Wunderground v.1.15,2013-09-05 23:51:00,
2013-09-05 18:56:00,74.6,64.6,30.01,SSW,198,2.0,6.0,71,0.00,,,0.00,Wunderground v.1.15,2013-09-05 23:56:00,
2013-09-05 19:01:00,74.5,64.9,30.01,SSW,198,0.0,5.0,72,0.00,,,0.00,Wunderground v.1.15,2013-09-06 00:01:00,
2013-09-05 19:06:00,74.2,64.6,30.01,SSW,198,3.0,6.0,72,0.00,,,0.00,Wunderground v.1.15,2013-09-06 00:06:00,
2013-09-05 19:11:00,74.0,64.4,30.01,SSW,198,2.0,3.0,72,0.00,,,0.00,Wunderground v.1.15,2013-09-06 00:11:00,
2013-09-05 19:16:00,73.8,64.2,30.01,SSW,198,3.0,4.0,72,0.00,,,0.00,Wunderground v.1.15,2013-09-06 00:16:00,
2013-09-05 19:21:00,73.7,64.1,30.01,SSW,198,2.0,3.0,72,0.00,,,0.00,Wunderground v.1.15,2013-09-06 00:21:00,
2013-09-05 19:26:00,73.4,64.2,30.00,SSW,198,3.0,5.0,73,0.00,,,0.00,Wunderground v.1.15,2013-09-06 00:26:00,
2013-09-05 19:31:00,73.3,64.1,30.00,SSW,198,2.0,3.0,73,0.00,,,0.00,Wunderground v.1.15,2013-09-06 00:31:00,
2013-09-05 19:36:00,73.3,63.7,30.00,SSW,198,2.0,5.0,72,0.00,,,0.00,Wunderground v.1.15,2013-09-06 00:36:00,
2013-09-05 19:41:00,73.4,63.8,30.00,SSW,198,5.0,6.0,72,0.00,,,0.00,Wunderground v.1.15,2013-09-06 00:41:00,
2013-09-05 19:46:00,73.5,63.5,30.00,SSW,198,2.0,6.0,71,0.00,,,0.00,Wunderground v.1.15,2013-09-06 00:46:00,
2013-09-05 19:51:00,73.4,63.4,30.00,SSW,198,5.0,5.0,71,0.00,,,0.00,Wunderground v.1.15,2013-09-06 00:51:00,
2013-09-05 19:56:00,73.4,63.0,30.00,SSW,198,3.0,6.0,70,0.00,,,0.00,Wunderground v.1.15,2013-09-06 00:56:00,
2013-09-05 20:01:00,73.4,62.6,30.00,SSW,198,2.0,6.0,69,0.00,,,0.00,Wunderground v.1.15,2013-09-06 01:01:00,
2013-09-05 20:06:00,73.6,62.4,30.00,SSW,198,4.0,8.0,68,0.00,,,0.00,Wunderground v.1.15,2013-09-06 01:06:00,
2013-09-05 20:11:00,73.6,62.4,30.00,SSW,198,1.0,6.0,68,0.00,,,0.00,Wunderground v.1.15,2013-09-06 01:11:00,
2013-09-05 20:16:00,73.7,62.1,30.00,SSW,198,1.0,7.0,67,0.00,,,0.00,Wunderground v.1.15,2013-09-06 01:16:00,
2013-09-05 20:21:00,73.6,62.4,30.00,SSW,196,2.0,7.0,68,0.00,,,0.00,Wunderground v.1.15,2013-09-06 01:21:00,
2013-09-05 20:26:00,73.5,62.3,30.00,SSW,196,5.0,7.0,68,0.00,,,0.00,Wunderground v.1.15,2013-09-06 01:26:00,
2013-09-05 20:31:00,73.5,62.3,30.00,SSW,196,6.0,6.0,68,0.00,,,0.00,Wunderground v.1.15,2013-09-06 01:31:00,
2013-09-05 20:36:00,73.5,62.3,29.99,SSW,194,3.0,7.0,68,0.00,,,0.00,Wunderground v.1.15,2013-09-06 01:36:00,
2013-09-05 20:41:00,73.4,62.2,30.00,SSW,193,4.0,7.0,68,0.00,,,0.00,Wunderground v.1.15,2013-09-06 01:41:00,
2013-09-05 20:46:00,73.2,62.0,30.00,South,191,1.0,7.0,68,0.00,,,0.00,Wunderground v.1.15,2013-09-06 01:46:00,
2013-09-05 20:52:00,72.9,61.7,30.00,South,190,5.0,9.0,68,0.00,,,0.00,Wunderground v.1.15,2013-09-06 01:52:00,
2013-09-05 20:57:00,72.9,62.1,29.99,South,185,7.0,9.0,69,0.00,,,0.00,Wunderground v.1.15,2013-09-06 01:57:00,
2013-09-05 21:02:00,72.8,61.6,29.99,South,183,2.0,6.0,68,0.00,,,0.00,Wunderground v.1.15,2013-09-06 02:02:00,
2013-09-05 21:07:00,72.6,61.8,29.99,South,183,4.0,10.0,69,0.00,,,0.00,Wunderground v.1.15,2013-09-06 02:07:00,
2013-09-05 21:12:00,72.8,61.6,30.00,South,182,5.0,10.0,68,0.00,,,0.00,Wunderground v.1.15,2013-09-06 02:12:00,
2013-09-05 21:17:00,73.0,61.8,30.00,South,182,3.0,10.0,68,0.00,,,0.00,Wunderground v.1.15,2013-09-06 02:17:00,
2013-09-05 21:22:00,73.0,61.8,30.00,South,182,2.0,6.0,68,0.00,,,0.00,Wunderground v.1.15,2013-09-06 02:22:00,
2013-09-05 21:27:00,72.9,62.1,30.00,South,182,3.0,9.0,69,0.00,,,0.00,Wunderground v.1.15,2013-09-06 02:27:00,
2013-09-05 21:32:00,72.8,62.0,30.00,South,182,6.0,6.0,69,0.00,,,0.00,Wunderground v.1.15,2013-09-06 02:32:00,
2013-09-05 21:37:00,72.6,61.8,30.00,South,182,4.0,7.0,69,0.00,,,0.00,Wunderground v.1.15,2013-09-06 02:37:00,
2013-09-05 21:42:00,72.3,61.6,30.00,South,182,5.0,8.0,69,0.00,,,0.00,Wunderground v.1.15,2013-09-06 02:42:00,
2013-09-05 21:47:00,72.0,61.7,29.99,South,182,5.0,8.0,70,0.00,,,0.00,Wunderground v.1.15,2013-09-06 02:47:00,
2013-09-05 21:52:00,72.1,61.8,29.99,South,182,3.0,7.0,70,0.00,,,0.00,Wunderground v.1.15,2013-09-06 02:52:00,
2013-09-05 21:57:00,72.3,61.6,29.99,South,182,5.0,8.0,69,0.00,,,0.00,Wunderground v.1.15,2013-09-06 02:57:00,
2013-09-05 22:02:00,72.2,61.5,29.99,South,182,4.0,7.0,69,0.00,,,0.00,Wunderground v.1.15,2013-09-06 03:02:00,
2013-09-05 22:07:00,72.1,61.4,30.00,South,182,7.0,7.0,69,0.00,,,0.00,Wunderground v.1.15,2013-09-06 03:07:00,
2013-09-05 22:12:00,72.0,61.3,29.99,South,182,4.0,7.0,69,0.00,,,0.00,Wunderground v.1.15,2013-09-06 03:12:00,
2013-09-05 22:17:00,71.8,61.5,29.99,South,182,4.0,7.0,70,0.00,,,0.00,Wunderground v.1.15,2013-09-06 03:17:00,
2013-09-05 22:22:00,71.6,61.3,29.99,South,182,1.0,7.0,70,0.00,,,0.00,Wunderground v.1.15,2013-09-06 03:22:00,
2013-09-05 22:27:00,71.7,61.4,29.99,South,182,5.0,7.0,70,0.00,,,0.00,Wunderground v.1.15,2013-09-06 03:27:00,
2013-09-05 22:32:00,71.6,61.7,29.99,South,182,3.0,5.0,71,0.00,,,0.00,Wunderground v.1.15,2013-09-06 03:32:00,
2013-09-05 22:37:00,71.6,61.7,29.99,South,182,5.0,8.0,71,0.00,,,0.00,Wunderground v.1.15,2013-09-06 03:37:00,
2013-09-05 22:42:00,71.5,62.0,29.99,South,182,6.0,9.0,72,0.00,,,0.00,Wunderground v.1.15,2013-09-06 03:42:00,
2013-09-05 22:47:00,71.3,61.8,29.99,South,182,5.0,9.0,72,0.00,,,0.00,Wunderground v.1.15,2013-09-06 03:47:00,
2013-09-05 22:52:00,71.0,61.9,29.99,South,182,2.0,9.0,73,0.00,,,0.00,Wunderground v.1.15,2013-09-06 03:52:00,
2013-09-05 22:57:00,71.0,61.9,29.99,South,182,4.0,9.0,73,0.00,,,0.00,Wunderground v.1.15,2013-09-06 03:57:00,
2013-09-05 23:01:00,70.9,61.8,29.99,South,182,4.0,5.0,73,0.00,,,0.00,Wunderground v.1.15,2013-09-06 04:01:00,
2013-09-05 23:02:00,71.0,61.9,29.99,South,182,3.0,5.0,73,0.00,,,0.00,Wunderground v.1.15,2013-09-06 04:02:00,
2013-09-05 23:07:00,70.7,61.6,29.99,South,182,4.0,6.0,73,0.00,,,0.00,Wunderground v.1.15,2013-09-06 04:07:00,
2013-09-05 23:12:00,70.3,61.6,29.99,South,182,5.0,7.0,74,0.00,,,0.00,Wunderground v.1.15,2013-09-06 04:12:00,
2013-09-05 23:17:00,70.2,61.5,29.99,South,182,2.0,7.0,74,0.00,,,0.00,Wunderground v.1.15,2013-09-06 04:17:00,
2013-09-05 23:22:00,70.1,61.8,29.99,South,182,4.0,5.0,75,0.00,,,0.00,Wunderground v.1.15,2013-09-06 04:22:00,
2013-09-05 23:27:00,69.9,62.0,29.99,South,182,2.0,7.0,76,0.00,,,0.00,Wunderground v.1.15,2013-09-06 04:27:00,
2013-09-05 23:32:00,69.9,62.0,29.99,South,182,4.0,6.0,76,0.00,,,0.00,Wunderground v.1.15,2013-09-06 04:32:00,
2013-09-05 23:37:00,69.7,61.8,29.99,South,182,4.0,6.0,76,0.00,,,0.00,Wunderground v.1.15,2013-09-06 04:37:00,
2013-09-05 23:42:00,69.6,61.7,29.99,South,182,3.0,7.0,76,0.00,,,0.00,Wunderground v.1.15,2013-09-06 04:42:00,
2013-09-05 23:47:00,69.7,61.8,29.99,South,182,5.0,7.0,76,0.00,,,0.00,Wunderground v.1.15,2013-09-06 04:47:00,
2013-09-05 23:52:00,69.6,61.7,29.99,South,182,3.0,5.0,76,0.00,,,0.00,Wunderground v.1.15,2013-09-06 04:52:00,
2013-09-05 23:57:00,69.4,61.9,29.99,South,182,3.0,5.0,77,0.00,,,0.00,Wunderground v.1.15,2013-09-06 04:57:00,